Time;durP1;ratioP1;P1;durP2;ratioP2;P2;SDS_P1;SDS_P2;PMS_P1;PMS_P2;Temp;Humidity;BMP_temperature;BMP_pressure;BME280_temperature;BME280_humidity;BME280_pressure;Samples;Min_cycle;Max_cycle;Signal;HPM_P1;HPM_P2
2020/12/19 00:00:02;;;;;;;;;;;;;;;22.71;24.21;99061.03;5082760;28;1025;-75
2020/12/19 00:02:30;;;;;;;;;;;;;;;22.82;23.96;99058.06;5082801;28;584;-74
2020/12/19 00:04:55;;;;;;;;;;;;;;;22.97;23.88;99064.34;5082793;28;640;-75
2020/12/19 00:07:21;;;;;;;;;;;;;;;22.90;23.73;99067.28;5085636;28;1535;-74
2020/12/19 00:09:46;;;;;;;;;;;;;;;21.62;25.55;99064.75;5082207;28;1377;-75
2020/12/19 00:12:12;;;;;;;;;;;;;;;21.33;25.92;99067.84;5082210;28;1910;-75
2020/12/19 00:14:37;;;;;;;;;;;;;;;21.34;26.04;99065.81;5082563;28;893;-74
2020/12/19 00:17:02;;;;;;;;;;;;;;;21.94;25.45;99063.63;5082695;28;632;-75
2020/12/19 00:19:28;;;;;;;;;;;;;;;22.37;24.55;99069.59;5091769;28;1519;-75
2020/12/19 00:21:53;;;;;;;;;;;;;;;22.40;24.68;99070.81;5097655;28;1582;-75
2020/12/19 00:24:19;;;;;;;;;;;;;;;22.79;23.91;99067.41;5082136;28;928;-75
2020/12/19 00:26:44;;;;;;;;;;;;;;;22.83;23.96;99063.28;5082289;28;938;-75
2020/12/19 00:29:13;;;;;;;;;;;;;;;22.99;23.70;99064.72;5082321;28;872;-75
2020/12/19 00:31:38;;;;;;;;;;;;;;;22.92;23.63;99064.84;5083596;28;1563;-75
2020/12/19 00:34:04;;;;;;;;;;;;;;;22.42;24.55;99071.97;5064885;28;1973;-75
2020/12/19 00:36:29;;;;;;;;;;;;;;;21.29;26.09;99069.88;5082255;28;637;-75
2020/12/19 00:38:55;;;;;;;;;;;;;;;21.26;26.05;99075.56;5081815;28;1058;-75
2020/12/19 00:41:21;;;;;;;;;;;;;;;21.96;25.38;99073.28;5083413;28;1456;-75
2020/12/19 00:43:47;;;;;;;;;;;;;;;22.38;24.56;99074.03;5102176;28;870;-75
2020/12/19 00:46:12;;;;;;;;;;;;;;;22.67;24.40;99074.47;5102732;28;685;-75
2020/12/19 00:48:39;;;;;;;;;;;;;;;22.75;24.31;99080.88;5102129;28;642;-75
2020/12/19 00:51:04;;;;;;;;;;;;;;;22.63;24.42;99076.53;5102425;28;707;-75
2020/12/19 00:53:29;;;;;;;;;;;;;;;22.80;24.24;99069.84;5099653;28;1909;-75
2020/12/19 00:55:55;;;;;;;;;;;;;;;22.94;23.83;99068.03;5095293;28;1483;-75
2020/12/19 00:58:26;;;;;;;;;;;;;;;22.98;23.49;99074.47;5081484;28;872;-74
2020/12/19 01:00:52;;;;;;;;;;;;;;;21.91;25.08;99067.28;5081947;28;1571;-75
2020/12/19 01:03:17;;;;;;;;;;;;;;;20.90;26.65;99075.03;5101863;28;615;-74
2020/12/19 01:05:43;;;;;;;;;;;;;;;21.26;26.60;99058.59;5102061;28;710;-75
2020/12/19 01:08:08;;;;;;;;;;;;;;;21.91;25.51;99053.13;5101530;28;998;-75
2020/12/19 01:10:36;;;;;;;;;;;;;;;22.43;24.68;99067.91;5101737;28;847;-76
2020/12/19 01:13:02;;;;;;;;;;;;;;;22.69;24.27;99063.53;5099847;28;1914;-75
2020/12/19 01:15:27;;;;;;;;;;;;;;;22.90;24.02;99067.28;5085509;28;1661;-75
2020/12/19 01:17:59;;;;;;;;;;;;;;;22.91;23.86;99057.56;5081510;28;705;-75
2020/12/19 01:20:24;;;;;;;;;;;;;;;22.63;24.16;99059.53;5081361;28;610;-74
2020/12/19 01:22:50;;;;;;;;;;;;;;;21.64;25.66;99067.97;5099147;28;1579;-75
2020/12/19 01:25:15;;;;;;;;;;;;;;;21.58;25.49;99064.00;5101215;28;900;-75
2020/12/19 01:27:41;;;;;;;;;;;;;;;21.89;25.27;99061.25;5101609;28;959;-74
2020/12/19 01:30:06;;;;;;;;;;;;;;;22.29;24.94;99063.22;5101684;28;709;-75
2020/12/19 01:32:31;;;;;;;;;;;;;;;22.54;24.57;99062.09;5098057;28;1985;-75
2020/12/19 01:34:57;;;;;;;;;;;;;;;22.84;23.68;99050.69;5101418;28;713;-75
2020/12/19 01:37:23;;;;;;;;;;;;;;;22.90;23.84;99055.91;5101118;28;931;-75
2020/12/19 01:39:48;;;;;;;;;;;;;;;22.84;24.15;99053.53;5100415;28;1118;-75
2020/12/19 01:42:17;;;;;;;;;;;;;;;21.53;25.73;99053.13;5100990;28;907;-75
2020/12/19 01:44:42;;;;;;;;;;;;;;;21.23;25.89;99051.72;5086237;28;1523;-75
2020/12/19 01:47:09;;;;;;;;;;;;;;;21.55;25.91;99047.81;5080498;28;642;-74
2020/12/19 01:49:35;;;;;;;;;;;;;;;22.20;25.29;99054.44;5063293;28;665;-75
2020/12/19 01:52:01;;;;;;;;;;;;;;;22.46;24.68;99060.59;5073320;28;1493;-75
2020/12/19 01:54:26;;;;;;;;;;;;;;;22.50;24.66;99056.47;5099284;28;1984;-75
2020/12/19 01:56:55;;;;;;;;;;;;;;;22.80;24.30;99061.31;5100740;28;880;-74
2020/12/19 01:59:21;;;;;;;;;;;;;;;22.64;24.21;99058.31;5100587;28;657;-75
2020/12/19 02:01:48;;;;;;;;;;;;;;;22.69;23.99;99057.84;5094619;28;1507;-74
2020/12/19 02:04:13;;;;;;;;;;;;;;;21.74;25.64;99055.72;5080262;28;653;-75
2020/12/19 02:06:39;;;;;;;;;;;;;;;21.19;26.35;99062.28;5080195;28;899;-75
2020/12/19 02:09:04;;;;;;;;;;;;;;;21.74;25.63;99055.72;5079840;28;898;-75
2020/12/19 02:11:38;;;;;;;;;;;;;;;22.25;24.80;99062.47;5080123;28;1037;-75
2020/12/19 02:14:08;;;;;;;;;;;;;;;22.61;24.63;99053.50;5081098;28;1893;-75
2020/12/19 02:16:34;;;;;;;;;;;;;;;22.72;24.39;99056.97;5090781;28;1496;-75
2020/12/19 02:18:59;;;;;;;;;;;;;;;22.68;24.27;99059.06;5100322;28;670;-75
2020/12/19 02:21:24;;;;;;;;;;;;;;;22.77;24.31;99065.00;5099981;28;1105;-75
2020/12/19 02:23:50;;;;;;;;;;;;;;;22.11;24.59;99062.63;5099345;28;1591;-75
2020/12/19 02:26:15;;;;;;;;;;;;;;;21.79;25.50;99063.78;5080044;28;1524;-75
2020/12/19 02:28:41;;;;;;;;;;;;;;;21.67;25.66;99061.47;5079812;28;694;-75
2020/12/19 02:31:06;;;;;;;;;;;;;;;21.91;25.71;99058.78;5080147;28;591;-75
2020/12/19 02:33:32;;;;;;;;;;;;;;;22.32;24.91;99056.69;5079801;28;1973;-75
2020/12/19 02:35:57;;;;;;;;;;;;;;;22.74;24.19;99065.88;5079640;28;956;-75
2020/12/19 02:38:22;;;;;;;;;;;;;;;22.81;24.28;99062.94;5097472;28;1527;-75
2020/12/19 02:40:48;;;;;;;;;;;;;;;22.71;24.09;99054.56;5099985;28;1121;-75
2020/12/19 02:43:13;;;;;;;;;;;;;;;22.92;23.83;99056.31;5099989;28;674;-75
2020/12/19 02:45:39;;;;;;;;;;;;;;;21.74;25.30;99066.25;5100488;28;695;-75
2020/12/19 02:48:05;;;;;;;;;;;;;;;21.35;26.00;99060.94;5100040;28;626;-75
2020/12/19 02:50:30;;;;;;;;;;;;;;;21.30;26.67;99065.88;5097667;28;1531;-75
2020/12/19 02:52:56;;;;;;;;;;;;;;;21.99;25.25;99057.50;5096570;28;1909;-75
2020/12/19 02:55:21;;;;;;;;;;;;;;;22.41;24.89;99059.03;5100017;28;865;-75
2020/12/19 02:57:47;;;;;;;;;;;;;;;22.48;24.55;99060.94;5099971;28;721;-75
2020/12/19 03:00:12;;;;;;;;;;;;;;;22.91;24.19;99068.91;5099996;28;661;-75
2020/12/19 03:02:38;;;;;;;;;;;;;;;22.80;24.10;99063.38;5087344;28;1566;-75
2020/12/19 03:05:03;;;;;;;;;;;;;;;22.66;24.35;99070.03;5080744;28;944;-75
2020/12/19 03:07:28;;;;;;;;;;;;;;;21.61;25.42;99074.50;5083510;28;997;-75
2020/12/19 03:09:54;;;;;;;;;;;;;;;21.13;26.34;99078.09;5083434;28;829;-74
2020/12/19 03:12:20;;;;;;;;;;;;;;;22.02;25.53;99076.47;5083504;28;1898;-75
2020/12/19 03:14:45;;;;;;;;;;;;;;;22.45;24.57;99070.31;5084591;28;1610;-75
2020/12/19 03:17:10;;;;;;;;;;;;;;;22.71;24.19;99078.06;5083365;28;662;-75
2020/12/19 03:19:36;;;;;;;;;;;;;;;22.70;24.34;99082.13;5082936;28;956;-74
2020/12/19 03:22:01;;;;;;;;;;;;;;;22.73;24.14;99072.75;5083116;28;867;-75
2020/12/19 03:24:27;;;;;;;;;;;;;;;22.84;24.29;99076.25;5083361;28;1945;-75
2020/12/19 03:26:52;;;;;;;;;;;;;;;22.69;23.81;99072.03;5084939;28;1583;-75
2020/12/19 03:29:18;;;;;;;;;;;;;;;21.68;25.42;99077.25;5083126;28;595;-74
2020/12/19 03:31:43;;;;;;;;;;;;;;;21.50;25.50;99073.75;5083118;28;721;-75
2020/12/19 03:34:17;;;;;;;;;;;;;;;21.79;25.81;99080.75;5101875;28;1905;-75
2020/12/19 03:36:43;;;;;;;;;;;;;;;22.27;24.81;99073.38;5103261;28;961;-75
2020/12/19 03:39:08;;;;;;;;;;;;;;;22.62;24.42;99084.25;5103367;28;980;-74
2020/12/19 03:41:37;;;;;;;;;;;;;;;22.84;24.14;99083.94;5103290;28;555;-75
2020/12/19 03:44:02;;;;;;;;;;;;;;;23.08;23.89;99084.84;5101040;28;1495;-75
2020/12/19 03:46:28;;;;;;;;;;;;;;;22.95;23.86;99081.00;5085095;28;1562;-75
2020/12/19 03:48:53;;;;;;;;;;;;;;;22.61;24.18;99085.50;5082353;28;963;-75
2020/12/19 03:51:19;;;;;;;;;;;;;;;21.32;26.16;99091.72;5082299;28;839;-74
2020/12/19 03:53:44;;;;;;;;;;;;;;;21.49;25.60;99095.63;5082632;28;1913;-75
2020/12/19 03:56:09;;;;;;;;;;;;;;;21.79;25.45;99091.28;5094566;28;1590;-74
2020/12/19 03:58:35;;;;;;;;;;;;;;;22.23;25.15;99096.13;5102805;28;636;-74
2020/12/19 04:01:00;;;;;;;;;;;;;;;22.37;24.95;99095.13;5103174;28;689;-74
2020/12/19 04:03:26;;;;;;;;;;;;;;;22.62;24.39;99091.97;5102435;28;813;-74
2020/12/19 04:05:51;;;;;;;;;;;;;;;22.90;23.93;99102.16;5102559;28;907;-75
2020/12/19 04:08:17;;;;;;;;;;;;;;;22.82;24.19;99107.09;5094818;28;1472;-74
2020/12/19 04:10:42;;;;;;;;;;;;;;;22.08;24.87;99101.13;5082323;28;690;-74
2020/12/19 04:13:07;;;;;;;;;;;;;;;21.58;25.63;99112.13;5082194;28;1910;-75
2020/12/19 04:15:33;;;;;;;;;;;;;;;21.76;25.99;99109.94;5082207;28;682;-74
2020/12/19 04:17:58;;;;;;;;;;;;;;;22.47;24.59;99113.22;5080893;28;856;-74
2020/12/19 04:20:24;;;;;;;;;;;;;;;22.76;24.36;99108.81;5081848;28;923;-75
2020/12/19 04:22:49;;;;;;;;;;;;;;;22.75;24.20;99106.41;5082041;28;861;-74
2020/12/19 04:25:15;;;;;;;;;;;;;;;22.76;24.36;99103.13;5082572;28;571;-74
2020/12/19 04:27:41;;;;;;;;;;;;;;;22.88;24.19;99111.09;5082029;28;678;-74
2020/12/19 04:30:07;;;;;;;;;;;;;;;22.60;24.06;99115.09;5081838;28;692;-75
2020/12/19 04:32:32;;;;;;;;;;;;;;;21.41;25.95;99104.59;5081967;28;1905;-74
2020/12/19 04:34:58;;;;;;;;;;;;;;;21.46;25.75;99112.66;5064279;28;842;-74
2020/12/19 04:37:23;;;;;;;;;;;;;;;21.68;25.92;99118.94;5081792;28;971;-74
2020/12/19 04:39:49;;;;;;;;;;;;;;;22.02;25.11;99118.97;5081663;28;993;-74
2020/12/19 04:42:14;;;;;;;;;;;;;;;22.51;24.65;99111.16;5081893;28;715;-74
2020/12/19 04:44:40;;;;;;;;;;;;;;;22.65;24.41;99119.50;5081597;28;666;-75
2020/12/19 04:47:05;;;;;;;;;;;;;;;22.79;24.25;99115.66;5081413;28;949;-75
2020/12/19 04:49:31;;;;;;;;;;;;;;;22.97;23.84;99118.28;5081249;28;896;-75
2020/12/19 04:51:57;;;;;;;;;;;;;;;21.76;25.37;99120.44;5081459;28;946;-74
2020/12/19 04:54:22;;;;;;;;;;;;;;;21.08;26.47;99120.97;5081547;28;1980;-75
2020/12/19 04:56:48;;;;;;;;;;;;;;;20.86;26.90;99130.81;5064306;28;607;-75
2020/12/19 04:59:14;;;;;;;;;;;;;;;22.18;25.27;99127.75;5064019;28;689;-75
2020/12/19 05:01:39;;;;;;;;;;;;;;;22.42;24.81;99125.03;5081114;28;797;-75
2020/12/19 05:04:04;;;;;;;;;;;;;;;22.72;24.45;99116.56;5080961;28;897;-75
2020/12/19 05:06:30;;;;;;;;;;;;;;;22.56;24.38;99127.72;5081214;28;858;-75
2020/12/19 05:08:56;;;;;;;;;;;;;;;22.90;23.77;99119.19;5081179;28;662;-75
2020/12/19 05:11:21;;;;;;;;;;;;;;;22.05;25.01;99132.31;5081170;28;682;-74
2020/12/19 05:13:47;;;;;;;;;;;;;;;21.69;25.44;99131.88;5080908;28;1965;-75
2020/12/19 05:16:13;;;;;;;;;;;;;;;21.73;25.99;99124.16;5080905;28;1113;-75
2020/12/19 05:18:39;;;;;;;;;;;;;;;22.15;25.09;99128.59;5080588;28;914;-74
2020/12/19 05:21:04;;;;;;;;;;;;;;;22.48;24.50;99129.03;5080959;28;991;-74
2020/12/19 05:23:39;;;;;;;;;;;;;;;22.63;24.43;99127.59;5080890;28;738;-73
2020/12/19 05:26:05;;;;;;;;;;;;;;;22.69;24.28;99131.59;5064098;28;649;-74
2020/12/19 05:28:34;;;;;;;;;;;;;;;23.11;23.94;99130.22;5063357;28;587;-75
2020/12/19 05:30:59;;;;;;;;;;;;;;;22.35;24.77;99135.25;5063330;28;819;-75
2020/12/19 05:33:35;;;;;;;;;;;;;;;21.66;25.66;99132.69;5080279;28;1906;-75
2020/12/19 05:36:01;;;;;;;;;;;;;;;21.62;25.71;99131.94;5063393;28;1449;-74
2020/12/19 05:38:27;;;;;;;;;;;;;;;22.47;24.82;99141.59;5080508;28;638;-75
2020/12/19 05:40:53;;;;;;;;;;;;;;;22.70;24.20;99138.88;5080491;28;1159;-74
2020/12/19 05:43:18;;;;;;;;;;;;;;;22.73;24.31;99138.00;5080333;28;603;-75
2020/12/19 05:45:43;;;;;;;;;;;;;;;22.97;23.85;99141.78;5080329;28;916;-74
2020/12/19 05:48:09;;;;;;;;;;;;;;;22.85;24.16;99145.97;5080040;28;882;-74
2020/12/19 05:50:34;;;;;;;;;;;;;;;23.11;23.88;99140.78;5080481;28;900;-75
2020/12/19 05:53:00;;;;;;;;;;;;;;;21.88;25.29;99145.44;5080341;28;1914;-74
2020/12/19 05:55:25;;;;;;;;;;;;;;;21.71;25.40;99147.22;5062885;28;662;-75
2020/12/19 05:57:51;;;;;;;;;;;;;;;21.89;25.81;99146.25;5080232;28;650;-74
2020/12/19 06:00:16;;;;;;;;;;;;;;;22.42;24.94;99150.56;5080020;28;950;-74
2020/12/19 06:02:42;;;;;;;;;;;;;;;22.79;24.05;99159.00;5079893;28;890;-75
2020/12/19 06:05:08;;;;;;;;;;;;;;;22.78;24.32;99156.59;5080023;28;904;-74
2020/12/19 06:07:43;;;;;;;;;;;;;;;22.79;24.12;99153.34;5062926;28;674;-74
2020/12/19 06:10:09;;;;;;;;;;;;;;;22.27;24.61;99156.41;5062599;28;939;-74
2020/12/19 06:12:36;;;;;;;;;;;;;;;21.70;25.66;99162.59;5080100;28;1973;-75
2020/12/19 06:15:02;;;;;;;;;;;;;;;20.83;26.81;99171.25;5062305;28;849;-75
2020/12/19 06:17:32;;;;;;;;;;;;;;;22.00;25.62;99175.28;5080174;28;895;-74
2020/12/19 06:19:58;;;;;;;;;;;;;;;22.57;24.71;99171.88;5062651;28;870;-75
2020/12/19 06:22:29;;;;;;;;;;;;;;;22.78;24.43;99170.78;5062570;28;1252;-74
2020/12/19 06:24:56;;;;;;;;;;;;;;;22.67;24.28;99179.44;5079892;28;643;-74
2020/12/19 06:27:22;;;;;;;;;;;;;;;22.74;24.17;99184.22;5080148;28;646;-75
2020/12/19 06:29:47;;;;;;;;;;;;;;;22.09;24.99;99181.28;5079585;28;1030;-74
2020/12/19 06:32:22;;;;;;;;;;;;;;;21.68;25.54;99193.38;5079662;28;872;-74
2020/12/19 06:34:56;;;;;;;;;;;;;;;21.29;26.41;99188.75;5079691;28;841;-74
2020/12/19 06:37:22;;;;;;;;;;;;;;;22.16;25.57;99189.72;5079725;28;726;-74
2020/12/19 06:40:08;;;;;;;;;;;;;;;22.52;24.91;99189.34;5065057;28;1135;-75
2020/12/19 06:42:33;;;;;;;;;;;;;;;22.84;24.30;99184.06;5075670;28;1424;-75
2020/12/19 06:45:19;;;;;;;;;;;;;;;23.08;23.85;99196.38;5086218;28;962;-75
2020/12/19 06:47:44;;;;;;;;;;;;;;;22.28;25.01;99192.06;5085465;28;1012;-75
2020/12/19 06:50:09;;;;;;;;;;;;;;;21.62;25.93;99200.72;5086464;28;678;-74
2020/12/19 06:52:35;;;;;;;;;;;;;;;21.48;26.40;99200.81;5086211;28;1957;-74
2020/12/19 06:55:00;;;;;;;;;;;;;;;22.17;25.28;99197.00;5086303;28;653;-74
2020/12/19 06:57:26;;;;;;;;;;;;;;;22.53;24.72;99185.28;5069108;28;1339;-75
2020/12/19 06:59:57;;;;;;;;;;;;;;;22.84;24.37;99195.44;5085940;28;849;-75
2020/12/19 07:02:23;;;;;;;;;;;;;;;22.68;24.65;99198.06;5085929;28;943;-74
2020/12/19 07:04:49;;;;;;;;;;;;;;;22.75;24.72;99194.34;5086334;28;868;-75
2020/12/19 07:07:15;;;;;;;;;;;;;;;22.19;25.23;99197.41;5086378;28;630;-75
2020/12/19 07:09:40;;;;;;;;;;;;;;;21.10;26.85;99203.47;5068742;28;682;-75
2020/12/19 07:12:14;;;;;;;;;;;;;;;21.10;26.88;99209.13;5086203;28;578;-74
2020/12/19 07:14:42;;;;;;;;;;;;;;;21.77;26.41;99207.88;5068512;28;1971;-74
2020/12/19 07:17:17;;;;;;;;;;;;;;;22.45;25.40;99195.13;5085972;28;943;-74
2020/12/19 07:19:43;;;;;;;;;;;;;;;22.55;24.96;99194.19;5086235;28;662;-74
2020/12/19 07:22:08;;;;;;;;;;;;;;;22.65;25.02;99198.94;5086129;28;615;-74
2020/12/19 07:24:34;;;;;;;;;;;;;;;22.86;24.69;99203.53;5086003;28;752;-74
2020/12/19 07:26:59;;;;;;;;;;;;;;;22.70;24.78;99198.47;5086416;28;650;-75
2020/12/19 07:29:24;;;;;;;;;;;;;;;21.93;25.81;99203.69;5085635;28;934;-74
2020/12/19 07:31:51;;;;;;;;;;;;;;;21.30;26.60;99206.63;5085755;28;824;-75
2020/12/19 07:34:16;;;;;;;;;;;;;;;21.70;26.68;99207.91;5085914;28;1910;-75
2020/12/19 07:36:42;;;;;;;;;;;;;;;22.32;25.34;99198.47;5086552;28;614;-74
2020/12/19 07:39:08;;;;;;;;;;;;;;;22.58;25.11;99201.84;5085743;28;1116;-74
2020/12/19 07:41:33;;;;;;;;;;;;;;;22.85;24.73;99207.63;5068668;28;934;-75
2020/12/19 07:44:12;;;;;;;;;;;;;;;22.65;25.08;99204.59;5085557;28;1030;-74
2020/12/19 07:46:47;;;;;;;;;;;;;;;22.76;24.72;99198.78;5068274;28;894;-74
2020/12/19 07:49:21;;;;;;;;;;;;;;;21.83;25.82;99200.53;5085850;28;673;-74
2020/12/19 07:51:47;;;;;;;;;;;;;;;21.57;26.25;99204.78;5066396;28;660;-74
2020/12/19 07:54:12;;;;;;;;;;;;;;;21.49;26.54;99202.41;5082481;28;1910;-75
2020/12/19 07:56:38;;;;;;;;;;;;;;;22.05;25.86;99203.19;5082733;28;650;-75
2020/12/19 07:59:03;;;;;;;;;;;;;;;22.53;25.13;99202.28;5064708;28;1072;-75
2020/12/19 08:01:28;;;;;;;;;;;;;;;22.67;25.08;99202.13;5064870;28;890;-74
2020/12/19 08:04:00;;;;;;;;;;;;;;;22.86;24.73;99193.00;5082428;28;913;-74
2020/12/19 08:06:38;;;;;;;;;;;;;;;21.91;25.72;99194.78;5082990;28;689;-75
2020/12/19 08:09:04;;;;;;;;;;;;;;;21.71;26.00;99198.22;5065239;28;615;-75
2020/12/19 08:11:29;;;;;;;;;;;;;;;21.41;26.63;99195.22;5082746;28;662;-75
2020/12/19 08:13:55;;;;;;;;;;;;;;;21.74;26.49;99196.56;5082165;28;1902;-75
2020/12/19 08:16:20;;;;;;;;;;;;;;;22.45;25.06;99195.13;5082380;28;884;-75
2020/12/19 08:18:45;;;;;;;;;;;;;;;22.70;24.72;99189.16;5064802;28;982;-75
2020/12/19 08:21:11;;;;;;;;;;;;;;;22.70;24.63;99184.28;5065288;28;722;-75
2020/12/19 08:23:37;;;;;;;;;;;;;;;22.65;24.66;99198.94;5082191;28;682;-75
2020/12/19 08:26:02;;;;;;;;;;;;;;;22.67;24.82;99187.94;5065236;28;630;-75
2020/12/19 08:28:27;;;;;;;;;;;;;;;22.70;24.66;99178.59;5081659;28;925;-75
2020/12/19 08:30:53;;;;;;;;;;;;;;;21.64;25.81;99186.94;5082243;28;915;-75
2020/12/19 08:33:18;;;;;;;;;;;;;;;21.04;26.65;99188.13;5081760;28;1964;-75
2020/12/19 08:35:44;;;;;;;;;;;;;;;21.63;26.44;99188.16;5065355;28;664;-75
2020/12/19 08:38:10;;;;;;;;;;;;;;;22.30;25.39;99183.91;5082041;28;630;-75
2020/12/19 08:40:36;;;;;;;;;;;;;;;22.62;25.04;99177.06;5081815;28;1230;-75
2020/12/19 08:43:01;;;;;;;;;;;;;;;22.98;24.07;99176.66;5081618;28;1076;-75
2020/12/19 08:45:28;;;;;;;;;;;;;;;22.85;24.25;99176.41;5081652;28;860;-75
2020/12/19 08:47:55;;;;;;;;;;;;;;;22.79;24.71;99176.03;5064491;28;1004;-76
2020/12/19 08:50:21;;;;;;;;;;;;;;;22.00;25.51;99172.44;5082086;28;633;-75
2020/12/19 08:52:46;;;;;;;;;;;;;;;21.25;26.36;99181.53;5082163;28;1910;-75
2020/12/19 08:55:12;;;;;;;;;;;;;;;21.44;26.10;99171.72;5081950;28;666;-75
2020/12/19 08:57:37;;;;;;;;;;;;;;;22.04;25.80;99171.19;5081304;28;997;-75
2020/12/19 09:00:12;;;;;;;;;;;;;;;22.50;24.99;99172.75;5081349;28;880;-75
2020/12/19 09:02:38;;;;;;;;;;;;;;;22.82;24.54;99169.53;5081139;28;931;-75
2020/12/19 09:05:04;;;;;;;;;;;;;;;22.99;24.34;99166.91;5081382;28;650;-75
2020/12/19 09:07:29;;;;;;;;;;;;;;;22.67;24.21;99162.41;5081717;28;670;-75
2020/12/19 09:09:55;;;;;;;;;;;;;;;21.93;25.42;99159.16;5081518;28;657;-75
2020/12/19 09:12:21;;;;;;;;;;;;;;;21.61;25.82;99165.13;5081192;28;1081;-75
2020/12/19 09:14:48;;;;;;;;;;;;;;;21.92;25.78;99151.09;5080848;28;1918;-75
2020/12/19 09:17:26;;;;;;;;;;;;;;;22.44;25.12;99148.94;5081347;28;898;-75
2020/12/19 09:20:04;;;;;;;;;;;;;;;22.72;24.64;99136.41;5081082;28;702;-75
2020/12/19 09:22:29;;;;;;;;;;;;;;;22.92;24.09;99138.63;5063978;28;698;-75
2020/12/19 09:24:54;;;;;;;;;;;;;;;22.16;25.21;99133.03;5081115;28;641;-76
2020/12/19 09:27:20;;;;;;;;;;;;;;;21.61;25.93;99133.97;5081261;28;1181;-76
2020/12/19 09:29:45;;;;;;;;;;;;;;;21.31;26.40;99141.06;5080674;28;958;-75
2020/12/19 09:32:11;;;;;;;;;;;;;;;22.24;25.32;99123.25;5081105;28;983;-75
2020/12/19 09:34:36;;;;;;;;;;;;;;;22.55;24.79;99121.25;5080714;28;1910;-75
2020/12/19 09:37:02;;;;;;;;;;;;;;;22.61;24.67;99124.41;5080831;28;694;-75
2020/12/19 09:39:27;;;;;;;;;;;;;;;22.57;24.82;99118.78;5080699;28;1025;-75
2020/12/19 09:41:53;;;;;;;;;;;;;;;22.94;24.04;99107.75;5080613;28;1075;-76
2020/12/19 09:44:18;;;;;;;;;;;;;;;22.16;24.75;99110.34;5080366;28;920;-75
2020/12/19 09:46:45;;;;;;;;;;;;;;;21.39;26.03;99107.03;5080938;28;901;-75
2020/12/19 09:49:10;;;;;;;;;;;;;;;21.19;26.89;99116.06;5063223;28;738;-75
2020/12/19 09:51:35;;;;;;;;;;;;;;;22.35;25.12;99104.06;5080925;28;682;-75
2020/12/19 09:54:01;;;;;;;;;;;;;;;22.49;24.67;99099.44;5080725;28;1910;-75
2020/12/19 09:56:26;;;;;;;;;;;;;;;22.50;24.64;99098.22;5080416;28;940;-75
2020/12/19 09:58:52;;;;;;;;;;;;;;;22.73;24.27;99092.63;5080135;28;808;-75
2020/12/19 10:01:17;;;;;;;;;;;;;;;22.85;24.36;99094.91;5080570;28;1047;-75
2020/12/19 10:03:43;;;;;;;;;;;;;;;22.52;24.25;99090.88;5080241;28;607;-75
2020/12/19 10:06:08;;;;;;;;;;;;;;;21.45;26.23;99092.03;5080613;28;600;-75
2020/12/19 10:08:34;;;;;;;;;;;;;;;21.04;26.75;99091.91;5080142;28;689;-75
2020/12/19 10:10:59;;;;;;;;;;;;;;;21.71;26.16;99075.59;5080518;28;956;-76
2020/12/19 10:13:25;;;;;;;;;;;;;;;22.28;25.20;99077.84;5079645;28;1898;-75
2020/12/19 10:15:50;;;;;;;;;;;;;;;22.49;24.68;99077.56;5079719;28;886;-76
2020/12/19 10:18:15;;;;;;;;;;;;;;;22.75;24.19;99073.16;5079993;28;630;-74
2020/12/19 10:20:41;;;;;;;;;;;;;;;22.97;24.17;99072.88;5080312;28;646;-75
2020/12/19 10:23:06;;;;;;;;;;;;;;;22.12;25.10;99074.78;5080076;28;725;-75
2020/12/19 10:25:32;;;;;;;;;;;;;;;21.52;25.80;99072.13;5080017;28;963;-75
2020/12/19 10:27:57;;;;;;;;;;;;;;;21.51;26.03;99070.53;5079764;28;888;-75
2020/12/19 10:30:23;;;;;;;;;;;;;;;22.04;25.74;99068.38;5080172;28;1155;-75
2020/12/19 10:32:48;;;;;;;;;;;;;;;22.83;24.32;99068.97;5080045;28;1971;-75
2020/12/19 10:35:13;;;;;;;;;;;;;;;22.86;24.21;99073.78;5080098;28;689;-75
2020/12/19 10:37:39;;;;;;;;;;;;;;;22.70;24.31;99065.13;5080243;28;737;-75
2020/12/19 10:40:04;;;;;;;;;;;;;;;22.80;24.42;99067.00;5079483;28;1091;-75
2020/12/19 10:42:30;;;;;;;;;;;;;;;22.76;24.39;99062.59;5080016;28;918;-75
2020/12/19 10:44:55;;;;;;;;;;;;;;;22.79;24.25;99073.09;5079932;28;961;-75
2020/12/19 10:47:21;;;;;;;;;;;;;;;22.87;24.05;99066.09;5079985;28;705;-75
2020/12/19 10:49:46;;;;;;;;;;;;;;;21.32;26.28;99068.28;5079837;28;627;-75
2020/12/19 10:52:12;;;;;;;;;;;;;;;20.97;26.71;99061.63;5080282;28;670;-75
2020/12/19 10:54:37;;;;;;;;;;;;;;;21.29;26.29;99058.53;5079354;28;1978;-75
2020/12/19 10:57:03;;;;;;;;;;;;;;;22.16;25.71;99048.00;5079637;28;890;-75
2020/12/19 10:59:29;;;;;;;;;;;;;;;22.57;24.67;99061.25;5080050;28;953;-75
2020/12/19 11:01:54;;;;;;;;;;;;;;;22.73;24.33;99055.72;5079949;28;656;-75
2020/12/19 11:04:20;;;;;;;;;;;;;;;22.66;24.48;99053.00;5079710;28;645;-75
2020/12/19 11:06:45;;;;;;;;;;;;;;;22.68;24.40;99056.22;5080048;28;640;-75
2020/12/19 11:09:13;;;;;;;;;;;;;;;21.60;25.96;99055.88;5079790;28;941;-75
2020/12/19 11:11:38;;;;;;;;;;;;;;;21.41;26.30;99053.66;5079680;28;879;-75
2020/12/19 11:14:04;;;;;;;;;;;;;;;20.82;27.30;99057.28;5079451;28;1909;-75
2020/12/19 11:16:29;;;;;;;;;;;;;;;22.03;25.70;99046.94;5080004;28;680;-74
2020/12/19 11:18:55;;;;;;;;;;;;;;;22.50;24.79;99050.81;5079617;28;670;-75
2020/12/19 11:21:20;;;;;;;;;;;;;;;22.47;24.96;99048.81;5079792;28;638;-75
2020/12/19 11:23:46;;;;;;;;;;;;;;;22.63;24.76;99051.81;5079202;28;992;-75
2020/12/19 11:26:11;;;;;;;;;;;;;;;22.80;24.53;99047.13;5081130;28;883;-75
2020/12/19 11:28:37;;;;;;;;;;;;;;;22.59;24.42;99047.44;5065738;28;901;-75
2020/12/19 11:31:03;;;;;;;;;;;;;;;21.49;26.27;99049.50;5066793;28;619;-74
2020/12/19 11:33:28;;;;;;;;;;;;;;;21.61;26.14;99051.84;5082831;28;1972;-74
2020/12/19 11:35:54;;;;;;;;;;;;;;;21.41;26.62;99047.97;5083641;28;662;-75
2020/12/19 11:38:19;;;;;;;;;;;;;;;22.18;25.54;99051.22;5082784;28;900;-75
2020/12/19 11:40:45;;;;;;;;;;;;;;;22.67;24.49;99051.78;5082688;28;1001;-75
2020/12/19 11:43:10;;;;;;;;;;;;;;;22.79;24.25;99054.03;5082897;28;1022;-75
2020/12/19 11:45:36;;;;;;;;;;;;;;;22.81;24.44;99054.41;5083358;28;683;-75
2020/12/19 11:48:01;;;;;;;;;;;;;;;22.80;24.30;99052.00;5082895;28;706;-75
2020/12/19 11:50:26;;;;;;;;;;;;;;;22.92;24.30;99053.47;5083009;28;674;-75
2020/12/19 11:52:52;;;;;;;;;;;;;;;21.67;25.55;99050.16;5082542;28;1918;-75
2020/12/19 11:55:17;;;;;;;;;;;;;;;21.33;26.30;99047.22;5082468;28;920;-75
2020/12/19 11:57:43;;;;;;;;;;;;;;;21.24;26.68;99050.53;5082782;28;928;-75
2020/12/19 12:00:08;;;;;;;;;;;;;;;22.26;25.39;99051.94;5082952;28;615;-76
2020/12/19 12:02:34;;;;;;;;;;;;;;;22.48;24.94;99046.78;5082751;28;674;-75
2020/12/19 12:04:59;;;;;;;;;;;;;;;22.59;24.61;99048.25;5082619;28;662;-75
2020/12/19 12:07:25;;;;;;;;;;;;;;;22.81;24.33;99047.94;5082918;28;1049;-75
2020/12/19 12:09:50;;;;;;;;;;;;;;;22.76;24.36;99039.91;5082328;28;888;-76
2020/12/19 12:12:15;;;;;;;;;;;;;;;21.88;25.54;99042.66;5082679;28;823;-75
2020/12/19 12:14:41;;;;;;;;;;;;;;;21.38;26.38;99037.47;5082399;28;1893;-76
2020/12/19 12:17:06;;;;;;;;;;;;;;;21.65;26.13;99037.63;5082727;28;647;-75
2020/12/19 12:19:32;;;;;;;;;;;;;;;22.15;25.56;99040.72;5065011;28;745;-75
2020/12/19 12:21:57;;;;;;;;;;;;;;;22.51;25.00;99045.94;5082616;28;958;-75
2020/12/19 12:24:23;;;;;;;;;;;;;;;22.67;24.60;99040.44;5082012;28;830;-76
2020/12/19 12:26:48;;;;;;;;;;;;;;;22.70;24.88;99044.47;5082605;28;884;-75
2020/12/19 12:29:14;;;;;;;;;;;;;;;22.73;24.68;99047.22;5082596;28;670;-75
2020/12/19 12:31:41;;;;;;;;;;;;;;;22.91;24.36;99034.84;5065096;28;678;-75
2020/12/19 12:34:06;;;;;;;;;;;;;;;21.85;25.61;99045.06;5082147;28;1894;-75
2020/12/19 12:36:32;;;;;;;;;;;;;;;21.19;26.58;99041.66;5081993;28;922;-75
2020/12/19 12:38:58;;;;;;;;;;;;;;;21.61;26.00;99046.16;5063313;28;1118;-75
2020/12/19 12:41:23;;;;;;;;;;;;;;;21.98;25.99;99042.53;5082012;28;981;-75
2020/12/19 12:43:49;;;;;;;;;;;;;;;22.50;24.95;99050.00;5081910;28;656;-76
2020/12/19 12:46:15;;;;;;;;;;;;;;;22.54;24.97;99051.56;5082127;28;591;-75
2020/12/19 12:48:41;;;;;;;;;;;;;;;22.76;24.80;99052.06;5081720;28;678;-75
2020/12/19 12:51:07;;;;;;;;;;;;;;;22.80;24.57;99047.13;5081882;28;987;-75
2020/12/19 12:53:32;;;;;;;;;;;;;;;21.85;25.59;99056.41;5081237;28;1974;-76
2020/12/19 12:55:58;;;;;;;;;;;;;;;21.55;26.22;99054.31;5082029;28;932;-75
2020/12/19 12:58:24;;;;;;;;;;;;;;;21.88;25.95;99051.16;5081526;28;722;-75